Time;durP1;ratioP1;P1;durP2;ratioP2;P2;SDS_P1;SDS_P2;PMS_P1;PMS_P2;Temp;Humidity;BMP_temperature;BMP_pressure;BME280_temperature;BME280_humidity;BME280_pressure;Samples;Min_cycle;Max_cycle;Signal;HPM_P1;HPM_P2
2021/05/18 00:00:52;;;;;;;2.03;0.70;;;;;;;;;;1484697;40;20041;-65
2021/05/18 00:01:53;;;;;;;2.30;0.90;;;;;;;;;;1484732;40;20316;-65
2021/05/18 00:02:56;;;;;;;2.10;0.70;;;;;;;;;;1484932;40;20036;-65
2021/05/18 00:03:58;;;;;;;1.25;0.75;;;;;;;;;;1484927;40;20074;-65
2021/05/18 00:05:00;;;;;;;3.13;0.80;;;;;;;;;;1484908;40;20033;-65
2021/05/18 00:06:02;;;;;;;2.65;0.70;;;;;;;;;;1484906;40;20072;-64
2021/05/18 00:07:03;;;;;;;1.38;0.70;;;;;;;;;;1484870;40;20118;-65
2021/05/18 00:08:06;;;;;;;2.50;0.80;;;;;;;;;;1484925;40;20031;-65
2021/05/18 00:11:50;;;;;;;1.67;0.70;;;;;;;;;;1484834;40;20042;-65
2021/05/18 00:12:51;;;;;;;2.47;0.98;;;;;;;;;;1484929;40;20033;-64
2021/05/18 00:13:54;;;;;;;1.40;0.60;;;;;;;;;;1484708;40;20113;-65
2021/05/18 00:14:55;;;;;;;2.13;0.80;;;;;;;;;;1484975;40;20029;-65
2021/05/18 00:15:59;;;;;;;1.13;0.60;;;;;;;;;;1484897;40;20033;-65
2021/05/18 00:17:00;;;;;;;2.40;0.70;;;;;;;;;;1484873;40;20029;-65
2021/05/18 00:18:02;;;;;;;1.98;0.80;;;;;;;;;;1484690;40;20029;-65
2021/05/18 00:19:04;;;;;;;2.78;0.80;;;;;;;;;;1484749;40;20040;-64
2021/05/18 00:20:08;;;;;;;1.38;0.55;;;;;;;;;;1484698;40;20040;-65
2021/05/18 00:21:09;;;;;;;1.30;0.60;;;;;;;;;;1484875;40;20039;-64
2021/05/18 00:22:10;;;;;;;2.63;0.75;;;;;;;;;;1484701;40;20055;-64
2021/05/18 00:23:13;;;;;;;1.50;0.68;;;;;;;;;;1484812;40;20055;-65
2021/05/18 00:24:14;;;;;;;2.45;0.70;;;;;;;;;;1484691;40;20052;-65
2021/05/18 00:25:17;;;;;;;1.48;0.70;;;;;;;;;;1484721;40;20069;-64
2021/05/18 00:26:18;;;;;;;2.85;0.80;;;;;;;;;;1484670;40;20113;-65
2021/05/18 00:27:22;;;;;;;2.17;0.70;;;;;;;;;;1484823;40;20040;-64
2021/05/18 00:28:23;;;;;;;1.52;0.70;;;;;;;;;;1484733;40;20124;-65
2021/05/18 00:29:26;;;;;;;1.08;0.60;;;;;;;;;;1484929;40;20117;-64
2021/05/18 00:30:27;;;;;;;1.38;0.80;;;;;;;;;;1484574;40;20040;-65
2021/05/18 00:31:28;;;;;;;1.70;0.70;;;;;;;;;;1484804;40;20033;-64
2021/05/18 00:32:30;;;;;;;1.40;0.70;;;;;;;;;;1484829;40;20035;-65
2021/05/18 00:33:41;;;;;;;1.48;0.90;;;;;;;;;;1484096;40;20039;-64
2021/05/18 00:34:43;;;;;;;2.67;0.70;;;;;;;;;;1484861;40;20029;-65
2021/05/18 00:35:46;;;;;;;1.92;0.70;;;;;;;;;;1484649;40;20082;-64
2021/05/18 00:36:55;;;;;;;1.50;0.70;;;;;;;;;;1484787;40;20028;-65
2021/05/18 00:37:57;;;;;;;2.42;1.15;;;;;;;;;;1484633;40;20029;-65
2021/05/18 00:38:58;;;;;;;1.92;0.80;;;;;;;;;;1484615;40;20388;-65
2021/05/18 00:39:59;;;;;;;3.80;0.70;;;;;;;;;;1484778;40;20033;-65
2021/05/18 00:41:01;;;;;;;1.27;0.60;;;;;;;;;;1484545;40;20420;-65
2021/05/18 00:42:12;;;;;;;1.60;0.60;;;;;;;;;;1484617;40;20029;-65
2021/05/18 00:43:14;;;;;;;0.77;0.50;;;;;;;;;;1484965;40;20036;-64
2021/05/18 00:44:15;;;;;;;0.80;0.60;;;;;;;;;;1484656;40;20392;-65
2021/05/18 00:45:18;;;;;;;1.55;0.70;;;;;;;;;;1484807;40;20032;-64
2021/05/18 00:46:20;;;;;;;2.00;0.70;;;;;;;;;;1484579;40;20028;-65
2021/05/18 00:47:22;;;;;;;2.45;0.85;;;;;;;;;;1484617;40;20304;-64
2021/05/18 00:48:23;;;;;;;1.92;0.80;;;;;;;;;;1484781;40;20020;-64
2021/05/18 00:49:24;;;;;;;1.33;0.70;;;;;;;;;;1484815;40;20073;-64
2021/05/18 00:50:27;;;;;;;2.83;0.60;;;;;;;;;;1484601;40;20388;-65
2021/05/18 00:51:30;;;;;;;0.82;0.52;;;;;;;;;;1484713;40;20036;-65
2021/05/18 00:52:30;;;;;;;2.97;0.70;;;;;;;;;;1484832;40;20029;-64
2021/05/18 00:53:32;;;;;;;1.42;0.65;;;;;;;;;;1484817;40;20292;-65
2021/05/18 00:54:39;;;;;;;0.85;0.57;;;;;;;;;;1484597;40;20029;-65
2021/05/18 00:55:42;;;;;;;2.47;0.60;;;;;;;;;;1484620;40;20031;-65
2021/05/18 00:59:22;;;;;;;1.85;0.80;;;;;;;;;;1484630;40;20032;-65
2021/05/18 01:00:24;;;;;;;2.30;0.63;;;;;;;;;;1484707;40;20091;-65
2021/05/18 01:01:25;;;;;;;2.90;0.80;;;;;;;;;;1484737;40;20036;-65
2021/05/18 01:02:26;;;;;;;1.00;0.55;;;;;;;;;;1484055;40;20047;-65
2021/05/18 01:03:28;;;;;;;1.35;0.60;;;;;;;;;;1484132;40;20434;-65
2021/05/18 01:04:30;;;;;;;1.30;0.60;;;;;;;;;;1484621;40;20029;-65
2021/05/18 01:06:51;;;;;;;1.48;0.60;;;;;;;;;;1484593;40;20029;-64
2021/05/18 01:07:52;;;;;;;1.40;0.60;;;;;;;;;;1484761;40;20029;-64
2021/05/18 01:08:54;;;;;;;1.90;0.63;;;;;;;;;;1484603;40;20280;-65
2021/05/18 01:09:56;;;;;;;1.67;0.63;;;;;;;;;;1484621;40;20035;-64
2021/05/18 01:10:57;;;;;;;0.82;0.50;;;;;;;;;;1484664;40;20040;-65
2021/05/18 01:11:58;;;;;;;1.92;0.60;;;;;;;;;;1484719;40;20036;-65
2021/05/18 01:14:10;;;;;;;3.03;0.75;;;;;;;;;;1475431;40;20103;-58
2021/05/18 01:15:11;;;;;;;0.90;0.55;;;;;;;;;;1476472;40;20037;-58
2021/05/18 01:16:13;;;;;;;1.42;0.57;;;;;;;;;;1476280;40;20322;-59
2021/05/18 01:17:14;;;;;;;1.42;0.50;;;;;;;;;;1476469;40;20026;-58
2021/05/18 01:18:15;;;;;;;0.88;0.50;;;;;;;;;;1476520;40;20115;-58
2021/05/18 01:19:19;;;;;;;1.50;0.60;;;;;;;;;;1476447;40;20029;-58
2021/05/18 01:20:21;;;;;;;2.42;0.75;;;;;;;;;;1476216;40;20470;-59
2021/05/18 01:21:24;;;;;;;0.32;0.32;;;;;;;;;;1476409;40;20034;-58
2021/05/18 01:22:25;;;;;;;1.80;0.60;;;;;;;;;;1476270;40;20330;-58
2021/05/18 01:23:27;;;;;;;1.13;0.50;;;;;;;;;;1478393;40;20045;-58
2021/05/18 01:24:28;;;;;;;0.85;0.45;;;;;;;;;;1480393;40;20312;-58
2021/05/18 01:25:29;;;;;;;1.27;0.50;;;;;;;;;;1480439;40;20025;-58
2021/05/18 01:26:32;;;;;;;0.80;0.50;;;;;;;;;;1480534;40;20025;-58
2021/05/18 01:27:33;;;;;;;1.45;0.50;;;;;;;;;;1480392;40;20033;-58
2021/05/18 01:28:35;;;;;;;0.77;0.50;;;;;;;;;;1480573;40;20110;-59
2021/05/18 01:29:36;;;;;;;1.83;0.80;;;;;;;;;;1480319;40;20403;-59
2021/05/18 01:30:37;;;;;;;1.63;0.60;;;;;;;;;;1480454;40;20036;-59
2021/05/18 01:31:39;;;;;;;0.88;0.52;;;;;;;;;;1480268;40;20036;-58
2021/05/18 01:32:42;;;;;;;1.00;0.57;;;;;;;;;;1480348;40;20480;-58
2021/05/18 01:33:43;;;;;;;0.75;0.40;;;;;;;;;;1480465;40;20033;-57
2021/05/18 01:34:44;;;;;;;0.43;0.40;;;;;;;;;;1480594;40;20523;-58
2021/05/18 01:35:46;;;;;;;2.05;1.00;;;;;;;;;;1480542;40;20026;-58
2021/05/18 01:36:48;;;;;;;0.88;0.50;;;;;;;;;;1480360;40;20036;-58
2021/05/18 01:38:05;;;;;;;0.60;0.50;;;;;;;;;;1480399;40;20402;-58
2021/05/18 01:39:22;;;;;;;1.40;0.50;;;;;;;;;;1480343;40;20029;-58
2021/05/18 01:43:02;;;;;;;1.88;0.80;;;;;;;;;;1480328;40;20044;-58
2021/05/18 01:44:05;;;;;;;0.90;0.40;;;;;;;;;;1480536;40;20114;-58
2021/05/18 01:45:11;;;;;;;2.88;0.70;;;;;;;;;;1480120;40;20300;-59
2021/05/18 01:46:12;;;;;;;0.70;0.50;;;;;;;;;;1480517;40;20033;-59
2021/05/18 01:47:13;;;;;;;0.60;0.43;;;;;;;;;;1480422;40;20111;-58
2021/05/18 01:48:16;;;;;;;1.30;0.50;;;;;;;;;;1480297;40;20119;-59
2021/05/18 01:49:17;;;;;;;0.85;0.45;;;;;;;;;;1480454;40;20033;-58
2021/05/18 01:50:20;;;;;;;1.35;0.50;;;;;;;;;;1480329;40;20033;-58
2021/05/18 01:51:21;;;;;;;0.68;0.40;;;;;;;;;;1480327;40;20317;-58
2021/05/18 01:52:23;;;;;;;0.60;0.40;;;;;;;;;;1480424;40;20025;-58
2021/05/18 01:53:24;;;;;;;1.02;0.40;;;;;;;;;;1480255;40;20045;-59
2021/05/18 01:54:28;;;;;;;0.90;0.50;;;;;;;;;;1480283;40;20025;-58
2021/05/18 01:55:33;;;;;;;0.75;0.38;;;;;;;;;;1480292;40;20384;-59
2021/05/18 01:56:44;;;;;;;0.77;0.40;;;;;;;;;;1480269;40;20385;-59
2021/05/18 01:57:46;;;;;;;0.50;0.43;;;;;;;;;;1480495;40;20033;-58
2021/05/18 01:58:46;;;;;;;0.35;0.35;;;;;;;;;;1480305;40;20029;-59
2021/05/18 01:59:49;;;;;;;1.42;0.50;;;;;;;;;;1480485;40;20029;-59
2021/05/18 02:00:50;;;;;;;0.63;0.40;;;;;;;;;;1480297;40;20029;-59
2021/05/18 02:01:57;;;;;;;0.85;0.40;;;;;;;;;;1480466;40;20061;-59
2021/05/18 02:02:58;;;;;;;0.60;0.40;;;;;;;;;;1480419;40;20036;-60
2021/05/18 02:04:01;;;;;;;0.88;0.47;;;;;;;;;;1480334;40;20069;-59
2021/05/18 02:05:05;;;;;;;1.40;0.50;;;;;;;;;;1480427;40;20111;-59
2021/05/18 02:06:07;;;;;;;0.88;0.50;;;;;;;;;;1480430;40;20026;-59
2021/05/18 02:07:10;;;;;;;1.00;0.50;;;;;;;;;;1480208;40;20115;-58
2021/05/18 02:08:14;;;;;;;1.00;0.43;;;;;;;;;;1480294;40;20371;-59
2021/05/18 02:09:15;;;;;;;0.80;0.50;;;;;;;;;;1479841;40;20036;-59
2021/05/18 02:10:18;;;;;;;0.68;0.40;;;;;;;;;;1479794;40;20312;-58
2021/05/18 02:11:19;;;;;;;0.88;0.50;;;;;;;;;;1480159;40;20104;-58
2021/05/18 02:12:21;;;;;;;1.55;0.47;;;;;;;;;;1480370;40;20100;-58
2021/05/18 02:13:22;;;;;;;1.17;0.40;;;;;;;;;;1480158;40;20485;-61
2021/05/18 02:14:27;;;;;;;0.93;0.50;;;;;;;;;;1480449;40;20148;-59
2021/05/18 02:15:38;;;;;;;0.65;0.50;;;;;;;;;;1480434;40;20032;-58
2021/05/18 02:16:41;;;;;;;1.45;0.50;;;;;;;;;;1480229;40;20383;-58
2021/05/18 02:17:45;;;;;;;0.68;0.50;;;;;;;;;;1480193;40;20085;-58
2021/05/18 02:19:09;;;;;;;0.70;0.50;;;;;;;;;;1480186;40;20035;-58
2021/05/18 02:20:19;;;;;;;1.20;0.40;;;;;;;;;;1480478;40;20073;-58
2021/05/18 02:21:36;;;;;;;1.13;0.60;;;;;;;;;;1480471;40;20065;-59
2021/05/18 02:25:22;;;;;;;1.60;0.85;;;;;;;;;;1480251;40;20475;-59
2021/05/18 02:26:24;;;;;;;1.30;0.80;;;;;;;;;;1480423;40;20288;-59
2021/05/18 02:27:25;;;;;;;1.02;0.60;;;;;;;;;;1480155;40;20037;-59
2021/05/18 02:28:28;;;;;;;1.45;0.50;;;;;;;;;;1480200;40;20037;-58
2021/05/18 02:29:30;;;;;;;2.35;0.70;;;;;;;;;;1480434;40;20061;-59
2021/05/18 02:30:31;;;;;;;1.15;0.60;;;;;;;;;;1480326;40;20041;-59
2021/05/18 02:31:33;;;;;;;1.00;0.55;;;;;;;;;;1480318;40;20056;-59
2021/05/18 02:32:35;;;;;;;1.15;0.60;;;;;;;;;;1480200;40;20081;-59
2021/05/18 02:33:36;;;;;;;1.77;0.50;;;;;;;;;;1480120;40;20043;-58
2021/05/18 02:34:38;;;;;;;1.20;0.57;;;;;;;;;;1480408;40;20033;-57
2021/05/18 02:35:39;;;;;;;0.90;0.60;;;;;;;;;;1480241;40;20037;-58
2021/05/18 02:36:40;;;;;;;0.50;0.40;;;;;;;;;;1480311;40;20115;-59
2021/05/18 02:37:43;;;;;;;0.75;0.45;;;;;;;;;;1480388;40;20033;-59
2021/05/18 02:38:45;;;;;;;1.30;0.70;;;;;;;;;;1480391;40;20036;-59
2021/05/18 02:39:46;;;;;;;1.02;0.52;;;;;;;;;;1480179;40;20274;-59
2021/05/18 02:40:48;;;;;;;1.67;0.65;;;;;;;;;;1480159;40;20040;-59
2021/05/18 02:41:49;;;;;;;1.20;0.63;;;;;;;;;;1480121;40;20037;-59
2021/05/18 02:42:52;;;;;;;0.95;0.60;;;;;;;;;;1480303;40;20041;-58
2021/05/18 02:43:55;;;;;;;1.75;0.50;;;;;;;;;;1480122;40;20380;-58
2021/05/18 02:45:02;;;;;;;2.75;0.73;;;;;;;;;;1480432;40;20026;-58
2021/05/18 02:46:08;;;;;;;2.53;0.60;;;;;;;;;;1480206;40;20371;-58
2021/05/18 02:49:48;;;;;;;1.10;0.52;;;;;;;;;;1480360;40;20022;-58
2021/05/18 02:50:49;;;;;;;2.47;0.80;;;;;;;;;;1480110;40;20310;-59
2021/05/18 02:51:50;;;;;;;1.02;0.60;;;;;;;;;;1480267;40;20029;-59
2021/05/18 02:53:01;;;;;;;1.73;0.70;;;;;;;;;;1480198;40;20297;-58
2021/05/18 02:54:03;;;;;;;;;;;;;;;;;;1480396;40;20029;-58
2021/05/18 02:55:06;;;;;;;1.63;0.70;;;;;;;;;;1479821;40;20018;-59
2021/05/18 02:56:20;;;;;;;1.63;0.68;;;;;;;;;;1480108;40;20025;-59
2021/05/18 02:57:32;;;;;;;1.73;0.50;;;;;;;;;;1480563;40;20092;-59
2021/05/18 02:58:35;;;;;;;1.20;0.60;;;;;;;;;;1480773;40;20326;-59
2021/05/18 02:59:36;;;;;;;1.48;0.57;;;;;;;;;;1480215;40;20021;-59
2021/05/18 03:00:37;;;;;;;1.13;0.55;;;;;;;;;;1476136;40;20274;-59
2021/05/18 03:01:40;;;;;;;2.25;0.70;;;;;;;;;;1480288;40;20080;-60
2021/05/18 03:02:41;;;;;;;2.28;0.70;;;;;;;;;;1480741;40;20041;-59
2021/05/18 03:03:42;;;;;;;0.70;0.40;;;;;;;;;;1480747;40;20049;-59
2021/05/18 03:04:43;;;;;;;1.30;0.70;;;;;;;;;;1480747;40;20362;-59
2021/05/18 03:05:44;;;;;;;1.33;0.90;;;;;;;;;;1480740;40;20041;-59
2021/05/18 03:06:48;;;;;;;0.63;0.50;;;;;;;;;;1480697;40;20299;-59
2021/05/18 03:07:51;;;;;;;1.58;0.85;;;;;;;;;;1480742;40;20029;-59
2021/05/18 03:08:53;;;;;;;2.10;0.50;;;;;;;;;;1480716;40;20037;-58
2021/05/18 03:09:54;;;;;;;1.98;0.75;;;;;;;;;;1480754;40;20299;-58
2021/05/18 03:10:56;;;;;;;1.33;0.60;;;;;;;;;;1480776;40;20032;-58
2021/05/18 03:11:57;;;;;;;3.63;0.73;;;;;;;;;;1480834;40;20037;-58
2021/05/18 03:13:00;;;;;;;1.02;0.60;;;;;;;;;;1480822;40;20036;-59
2021/05/18 03:14:02;;;;;;;1.65;0.63;;;;;;;;;;1480902;40;20048;-59
2021/05/18 03:15:04;;;;;;;1.55;0.60;;;;;;;;;;1480894;40;20029;-59
2021/05/18 03:16:07;;;;;;;1.67;0.73;;;;;;;;;;1480891;40;20107;-59
2021/05/18 03:17:08;;;;;;;2.17;0.80;;;;;;;;;;1480824;40;20025;-58
2021/05/18 03:18:09;;;;;;;0.73;0.50;;;;;;;;;;1480752;40;20025;-58
2021/05/18 03:19:11;;;;;;;1.90;0.50;;;;;;;;;;1480630;40;20485;-60
2021/05/18 03:20:16;;;;;;;1.10;0.85;;;;;;;;;;1480685;40;20040;-58
2021/05/18 03:21:17;;;;;;;1.88;0.63;;;;;;;;;;1480652;40;20411;-59
2021/05/18 03:22:18;;;;;;;2.60;0.80;;;;;;;;;;1480692;40;20021;-59
2021/05/18 03:23:19;;;;;;;1.30;0.60;;;;;;;;;;1480613;40;20414;-59
2021/05/18 03:24:20;;;;;;;1.27;0.60;;;;;;;;;;1480647;40;20036;-58
2021/05/18 03:25:22;;;;;;;2.33;0.73;;;;;;;;;;1480652;40;20033;-58
2021/05/18 03:26:26;;;;;;;1.58;0.80;;;;;;;;;;1480685;40;20032;-59
2021/05/18 03:27:29;;;;;;;1.38;0.60;;;;;;;;;;1480671;40;20069;-58
2021/05/18 03:28:30;;;;;;;1.30;0.70;;;;;;;;;;1480847;40;20029;-58
2021/05/18 03:29:33;;;;;;;1.08;0.70;;;;;;;;;;1480692;40;20032;-59
2021/05/18 03:30:48;;;;;;;0.90;0.60;;;;;;;;;;1480680;40;20477;-59
2021/05/18 03:34:33;;;;;;;1.42;0.60;;;;;;;;;;1480936;40;20029;-59
2021/05/18 03:35:34;;;;;;;0.80;0.63;;;;;;;;;;1480872;40;20021;-59
2021/05/18 03:36:36;;;;;;;1.15;0.50;;;;;;;;;;1480664;40;20407;-59
2021/05/18 03:37:46;;;;;;;1.33;0.63;;;;;;;;;;1480821;40;20029;-59
2021/05/18 03:38:50;;;;;;;2.58;0.75;;;;;;;;;;1480755;40;20033;-59
2021/05/18 03:39:55;;;;;;;2.78;0.70;;;;;;;;;;1480844;40;20111;-59
2021/05/18 03:41:00;;;;;;;1.67;0.73;;;;;;;;;;1480393;40;20114;-59
2021/05/18 03:42:04;;;;;;;1.00;0.60;;;;;;;;;;1480406;40;20029;-59
2021/05/18 03:43:11;;;;;;;2.05;0.68;;;;;;;;;;1480773;40;20095;-59
2021/05/18 03:44:18;;;;;;;0.90;0.52;;;;;;;;;;1480648;40;20404;-59
2021/05/18 03:45:21;;;;;;;1.55;0.93;;;;;;;;;;1480636;40;20390;-59
2021/05/18 03:53:36;;;;;;;1.10;0.70;;;;;;;;;;1467583;40;20314;-59
2021/05/18 03:54:47;;;;;;;1.65;0.80;;;;;;;;;;1468757;40;20035;-61
2021/05/18 03:58:42;;;;;;;1.17;0.80;;;;;;;;;;1469481;40;20066;-59
2021/05/18 04:02:41;;;;;;;1.48;0.80;;;;;;;;;;1480638;40;20041;-58
2021/05/18 04:03:49;;;;;;;1.95;0.60;;;;;;;;;;1480750;40;20039;-58
2021/05/18 04:04:54;;;;;;;1.35;0.60;;;;;;;;;;1480621;40;20029;-58
2021/05/18 04:10:19;;;;;;;2.05;0.68;;;;;;;;;;1480817;40;20033;-58
2021/05/18 04:12:46;;;;;;;1.80;0.60;;;;;;;;;;1480782;40;20056;-57
2021/05/18 04:17:54;;;;;;;1.60;0.70;;;;;;;;;;1480762;40;20110;-58
2021/05/18 04:18:59;;;;;;;1.17;0.60;;;;;;;;;;1480659;40;20093;-59
2021/05/18 04:20:12;;;;;;;1.33;0.70;;;;;;;;;;1480182;40;20037;-58
2021/05/18 04:21:19;;;;;;;1.38;0.55;;;;;;;;;;1480406;40;20040;-58
2021/05/18 04:22:45;;;;;;;1.85;1.05;;;;;;;;;;1480551;40;20025;-58
2021/05/18 04:23:51;;;;;;;1.65;0.90;;;;;;;;;;1480498;40;20045;-58
2021/05/18 04:25:28;;;;;;;1.70;0.60;;;;;;;;;;1480712;40;20030;-58
2021/05/18 04:26:37;;;;;;;1.65;0.73;;;;;;;;;;1480868;40;20029;-58
2021/05/18 04:41:16;;;;;;;2.58;0.80;;;;;;;;;;1480466;40;20046;-58
2021/05/18 04:50:44;;;;;;;1.25;0.60;;;;;;;;;;1480670;40;20111;-58
2021/05/18 04:51:47;;;;;;;1.40;0.60;;;;;;;;;;1480482;40;20091;-58
2021/05/18 04:52:56;;;;;;;0.80;0.50;;;;;;;;;;1480580;40;20086;-58
2021/05/18 04:58:58;;;;;;;2.17;0.60;;;;;;;;;;1480297;40;20029;-59
2021/05/18 04:59:33;;;;;;;2.53;0.77;;;;;;;;;;1480463;40;20292;-58
2021/05/18 05:00:44;;;;;;;1.27;0.55;;;;;;;;;;1480645;40;20040;-59
2021/05/18 05:01:53;;;;;;;1.65;0.60;;;;;;;;;;1480575;40;20056;-59
2021/05/18 05:04:18;;;;;;;1.67;0.50;;;;;;;;;;1479202;40;20041;-59
2021/05/18 05:06:48;;;;;;;1.13;0.68;;;;;;;;;;1480670;40;20029;-59
2021/05/18 05:07:55;;;;;;;2.38;0.63;;;;;;;;;;1480466;40;20289;-59
2021/05/18 05:09:04;;;;;;;0.57;0.45;;;;;;;;;;1480607;40;20025;-59
2021/05/18 05:10:05;;;;;;;1.75;0.70;;;;;;;;;;1480450;40;20065;-59
2021/05/18 05:12:54;;;;;;;1.42;0.73;;;;;;;;;;1480414;40;20384;-59
2021/05/18 05:15:24;;;;;;;1.55;0.57;;;;;;;;;;1467488;40;20030;-59
2021/05/18 05:16:26;;;;;;;1.15;0.60;;;;;;;;;;1475423;40;20025;-59
2021/05/18 05:17:27;;;;;;;1.17;0.60;;;;;;;;;;1480426;40;20045;-61
2021/05/18 05:18:28;;;;;;;1.17;0.50;;;;;;;;;;1480395;40;20126;-60
2021/05/18 05:19:30;;;;;;;2.00;0.52;;;;;;;;;;1480252;40;20041;-59
2021/05/18 05:20:31;;;;;;;1.23;0.50;;;;;;;;;;1480318;40;20033;-59
2021/05/18 05:21:33;;;;;;;1.20;0.50;;;;;;;;;;1480473;40;20393;-61
2021/05/18 05:22:34;;;;;;;1.23;0.60;;;;;;;;;;1480379;40;20282;-59
2021/05/18 05:23:35;;;;;;;1.13;0.50;;;;;;;;;;1480379;40;20351;-59
2021/05/18 05:24:37;;;;;;;3.42;0.55;;;;;;;;;;1480514;40;20029;-59
2021/05/18 05:25:38;;;;;;;1.33;0.60;;;;;;;;;;1480534;40;20037;-58
2021/05/18 05:26:41;;;;;;;0.75;0.50;;;;;;;;;;1480358;40;20392;-59
2021/05/18 05:27:42;;;;;;;1.55;0.50;;;;;;;;;;1480364;40;20051;-59
2021/05/18 05:28:43;;;;;;;2.83;0.50;;;;;;;;;;1480578;40;20025;-59
2021/05/18 05:29:44;;;;;;;2.80;0.60;;;;;;;;;;1480437;40;20407;-59
2021/05/18 05:30:46;;;;;;;1.30;0.60;;;;;;;;;;1480383;40;20120;-59
2021/05/18 05:31:48;;;;;;;2.22;0.90;;;;;;;;;;1480299;40;20304;-59
2021/05/18 05:32:49;;;;;;;4.03;0.90;;;;;;;;;;1480322;40;20298;-59
2021/05/18 05:33:50;;;;;;;6.20;1.00;;;;;;;;;;1480290;40;20091;-59
2021/05/18 05:34:52;;;;;;;2.05;0.60;;;;;;;;;;1480354;40;20033;-59
2021/05/18 05:35:52;;;;;;;0.95;0.40;;;;;;;;;;1480337;40;20036;-59
2021/05/18 05:36:54;;;;;;;2.83;0.85;;;;;;;;;;1480311;40;20025;-59
2021/05/18 05:37:56;;;;;;;1.83;0.60;;;;;;;;;;1480498;40;20072;-60
2021/05/18 05:39:02;;;;;;;2.85;0.88;;;;;;;;;;1480513;40;20061;-59
2021/05/18 05:40:05;;;;;;;1.17;0.60;;;;;;;;;;1480388;40;20397;-60
2021/05/18 05:41:07;;;;;;;2.05;0.70;;;;;;;;;;1480434;40;20033;-59
2021/05/18 05:42:07;;;;;;;3.45;0.75;;;;;;;;;;1480549;40;20033;-59
2021/05/18 05:43:09;;;;;;;6.63;1.05;;;;;;;;;;1480458;40;20300;-59
2021/05/18 05:44:10;;;;;;;5.05;0.80;;;;;;;;;;1480480;40;20033;-59
2021/05/18 05:45:12;;;;;;;2.17;0.70;;;;;;;;;;1480519;40;20044;-59
2021/05/18 05:46:14;;;;;;;2.10;0.82;;;;;;;;;;1480491;40;20032;-59
2021/05/18 05:47:15;;;;;;;0.65;0.47;;;;;;;;;;1480365;40;20041;-59
2021/05/18 05:48:18;;;;;;;3.97;0.90;;;;;;;;;;1480487;40;20106;-59
2021/05/18 05:49:20;;;;;;;1.17;0.60;;;;;;;;;;1480310;40;20385;-59
2021/05/18 05:50:20;;;;;;;1.52;0.63;;;;;;;;;;1480340;40;20424;-59
2021/05/18 05:51:23;;;;;;;2.83;0.70;;;;;;;;;;1480520;40;20033;-59
2021/05/18 05:52:24;;;;;;;1.55;0.57;;;;;;;;;;1480260;40;20404;-59
2021/05/18 05:53:25;;;;;;;1.73;0.70;;;;;;;;;;1480223;40;20045;-61
2021/05/18 05:54:26;;;;;;;1.00;0.50;;;;;;;;;;1480280;40;20033;-59
2021/05/18 05:55:28;;;;;;;0.80;0.50;;;;;;;;;;1480437;40;20037;-59
2021/05/18 05:56:29;;;;;;;1.55;0.60;;;;;;;;;;1480446;40;20029;-59
2021/05/18 05:57:31;;;;;;;1.88;0.75;;;;;;;;;;1479784;40;20041;-59
2021/05/18 05:58:32;;;;;;;1.30;0.60;;;;;;;;;;1479828;40;20044;-59
2021/05/18 05:59:33;;;;;;;1.80;0.52;;;;;;;;;;1480424;40;20035;-59
2021/05/18 06:00:34;;;;;;;1.50;0.60;;;;;;;;;;1480300;40;20029;-59
2021/05/18 06:01:37;;;;;;;1.25;0.60;;;;;;;;;;1480504;40;20033;-60
2021/05/18 06:02:38;;;;;;;3.25;0.70;;;;;;;;;;1480266;40;20274;-59
2021/05/18 06:03:39;;;;;;;1.02;0.50;;;;;;;;;;1480250;40;20044;-59
2021/05/18 06:04:40;;;;;;;2.53;0.70;;;;;;;;;;1480439;40;20029;-60
2021/05/18 06:05:41;;;;;;;2.42;0.70;;;;;;;;;;1480247;40;20029;-66
2021/05/18 06:06:42;;;;;;;2.45;0.70;;;;;;;;;;1480431;40;20033;-59
2021/05/18 06:07:43;;;;;;;1.83;0.60;;;;;;;;;;1480447;40;20025;-59
2021/05/18 06:08:46;;;;;;;2.13;0.70;;;;;;;;;;1480272;40;20025;-59
2021/05/18 06:09:48;;;;;;;3.45;0.95;;;;;;;;;;1480290;40;20120;-59
2021/05/18 06:10:55;;;;;;;1.85;0.90;;;;;;;;;;1479696;40;20110;-59
2021/05/18 06:12:01;;;;;;;1.70;0.70;;;;;;;;;;1479922;40;20033;-59
2021/05/18 06:13:16;;;;;;;2.03;0.77;;;;;;;;;;1480117;40;20033;-60
2021/05/18 06:14:32;;;;;;;3.17;0.70;;;;;;;;;;1480282;40;20021;-59
2021/05/18 06:34:46;;;;;;;0.85;0.55;;;;;;;;;;1467985;40;20030;-60
2021/05/18 06:37:26;;;;;;;0.88;0.52;;;;;;;;;;1480647;40;20309;-60
2021/05/18 06:42:42;;;;;;;1.60;0.60;;;;;;;;;;1478218;40;20385;-59
2021/05/18 06:46:34;;;;;;;2.38;0.85;;;;;;;;;;1480768;40;20032;-60
2021/05/18 06:47:36;;;;;;;1.77;0.60;;;;;;;;;;1480938;40;20029;-59
2021/05/18 06:48:38;;;;;;;1.65;0.75;;;;;;;;;;1480783;40;20300;-59
2021/05/18 06:49:43;;;;;;;1.05;0.60;;;;;;;;;;1480722;40;20061;-59
2021/05/18 06:50:44;;;;;;;1.48;0.57;;;;;;;;;;1480761;40;20366;-59
2021/05/18 06:51:45;;;;;;;2.03;0.70;;;;;;;;;;1480788;40;20411;-60
2021/05/18 06:52:47;;;;;;;1.30;0.57;;;;;;;;;;1480677;40;20025;-59
2021/05/18 06:53:48;;;;;;;1.40;0.52;;;;;;;;;;1480880;40;20037;-59
2021/05/18 06:54:49;;;;;;;2.30;0.80;;;;;;;;;;1480795;40;20029;-59
2021/05/18 06:55:52;;;;;;;2.45;0.75;;;;;;;;;;1480761;40;20033;-60
2021/05/18 06:56:55;;;;;;;1.70;0.60;;;;;;;;;;1480922;40;20033;-60
2021/05/18 06:58:03;;;;;;;1.48;0.50;;;;;;;;;;1480729;40;20059;-60
2021/05/18 07:00:24;;;;;;;1.67;0.60;;;;;;;;;;1480967;40;20029;-60
2021/05/18 07:01:24;;;;;;;1.77;0.85;;;;;;;;;;1480700;40;20478;-60
2021/05/18 07:02:30;;;;;;;0.70;0.45;;;;;;;;;;1480748;40;20311;-59
2021/05/18 07:03:36;;;;;;;1.05;0.60;;;;;;;;;;1480718;40;20060;-59
2021/05/18 07:04:38;;;;;;;3.05;0.80;;;;;;;;;;1480783;40;20110;-60
2021/05/18 07:05:45;;;;;;;1.13;0.63;;;;;;;;;;1480723;40;20111;-60
2021/05/18 07:06:51;;;;;;;1.75;0.60;;;;;;;;;;1480744;40;20056;-60
2021/05/18 07:07:57;;;;;;;0.80;0.40;;;;;;;;;;1480752;40;20029;-59
2021/05/18 07:08:58;;;;;;;1.17;0.50;;;;;;;;;;1480895;40;20030;-60
2021/05/18 07:09:59;;;;;;;0.80;0.60;;;;;;;;;;1480719;40;20025;-60
2021/05/18 07:11:01;;;;;;;2.00;0.70;;;;;;;;;;1480730;40;20036;-60
2021/05/18 07:12:02;;;;;;;1.33;0.70;;;;;;;;;;1480805;40;20033;-60
2021/05/18 07:13:04;;;;;;;0.77;0.60;;;;;;;;;;1480940;40;20409;-62
2021/05/18 07:14:05;;;;;;;1.23;0.60;;;;;;;;;;1480855;40;20036;-62
2021/05/18 07:15:08;;;;;;;0.65;0.52;;;;;;;;;;1480888;40;20033;-63
2021/05/18 07:16:09;;;;;;;0.90;0.50;;;;;;;;;;1480894;40;20036;-63
2021/05/18 07:17:10;;;;;;;1.23;0.60;;;;;;;;;;1480761;40;20404;-63
2021/05/18 07:18:11;;;;;;;2.17;0.70;;;;;;;;;;1480694;40;20037;-62
2021/05/18 07:19:13;;;;;;;3.38;0.95;;;;;;;;;;1480878;40;20036;-63
2021/05/18 07:20:15;;;;;;;5.00;0.88;;;;;;;;;;1480642;40;20025;-63
2021/05/18 07:21:17;;;;;;;0.82;0.55;;;;;;;;;;1480744;40;20064;-63
2021/05/18 07:22:18;;;;;;;2.67;0.73;;;;;;;;;;1480676;40;20111;-63
2021/05/18 07:23:23;;;;;;;0.98;0.60;;;;;;;;;;1480601;40;20033;-63
2021/05/18 07:24:28;;;;;;;1.40;0.63;;;;;;;;;;1480689;40;20044;-63
2021/05/18 07:25:29;;;;;;;2.20;0.60;;;;;;;;;;1480668;40;20341;-63
2021/05/18 07:26:30;;;;;;;2.05;0.90;;;;;;;;;;1480672;40;20118;-63
2021/05/18 07:27:31;;;;;;;1.17;0.50;;;;;;;;;;1480867;40;20091;-63
2021/05/18 07:28:34;;;;;;;2.08;0.80;;;;;;;;;;1480839;40;20045;-62
2021/05/18 07:29:35;;;;;;;1.17;0.50;;;;;;;;;;1480674;40;20030;-62
2021/05/18 07:30:38;;;;;;;1.25;0.60;;;;;;;;;;1480738;40;20029;-63
2021/05/18 07:31:38;;;;;;;2.10;0.60;;;;;;;;;;1480849;40;20034;-63
2021/05/18 07:32:40;;;;;;;2.95;0.70;;;;;;;;;;1480774;40;20044;-63
2021/05/18 07:33:41;;;;;;;0.75;0.50;;;;;;;;;;1480810;40;20081;-62
2021/05/18 07:34:43;;;;;;;3.47;0.85;;;;;;;;;;1480855;40;20073;-63
2021/05/18 07:35:46;;;;;;;0.98;0.50;;;;;;;;;;1480665;40;20316;-62
2021/05/18 07:36:48;;;;;;;1.77;0.70;;;;;;;;;;1480646;40;20048;-63
2021/05/18 07:37:49;;;;;;;2.40;0.70;;;;;;;;;;1480760;40;20060;-63
2021/05/18 07:38:50;;;;;;;1.27;0.70;;;;;;;;;;1480817;40;20388;-63
2021/05/18 07:39:51;;;;;;;2.22;0.70;;;;;;;;;;1480785;40;20029;-63
2021/05/18 07:40:53;;;;;;;1.70;0.70;;;;;;;;;;1480647;40;20029;-62
2021/05/18 07:41:54;;;;;;;1.85;0.60;;;;;;;;;;1480625;40;20037;-63
2021/05/18 07:42:55;;;;;;;0.98;0.50;;;;;;;;;;1480568;40;20025;-62
2021/05/18 07:43:57;;;;;;;2.28;0.80;;;;;;;;;;1480629;40;20096;-63
2021/05/18 07:45:00;;;;;;;2.25;0.52;;;;;;;;;;1480672;40;20348;-62
2021/05/18 07:46:03;;;;;;;1.08;0.60;;;;;;;;;;1480645;40;20033;-62
2021/05/18 07:47:04;;;;;;;2.97;0.70;;;;;;;;;;1480680;40;20299;-62
2021/05/18 07:48:12;;;;;;;1.52;0.80;;;;;;;;;;1480626;40;20025;-62
2021/05/18 07:49:27;;;;;;;1.35;0.73;;;;;;;;;;1480815;40;20045;-62
2021/05/18 07:50:39;;;;;;;1.88;0.68;;;;;;;;;;1480642;40;20304;-62
2021/05/18 07:59:48;;;;;;;1.88;0.60;;;;;;;;;;1480662;40;20037;-62
2021/05/18 08:01:11;;;;;;;1.65;0.70;;;;;;;;;;1480661;40;20282;-62
2021/05/18 08:02:23;;;;;;;0.90;0.70;;;;;;;;;;1480593;40;20021;-61
2021/05/18 08:06:04;;;;;;;2.35;0.65;;;;;;;;;;1480659;40;20475;-63
2021/05/18 08:07:05;;;;;;;1.00;0.70;;;;;;;;;;1480589;40;20036;-62
2021/05/18 08:08:07;;;;;;;2.45;0.80;;;;;;;;;;1480780;40;20033;-63
2021/05/18 08:09:08;;;;;;;1.17;0.60;;;;;;;;;;1480867;40;20033;-62
2021/05/18 08:10:13;;;;;;;1.77;0.70;;;;;;;;;;1480528;40;20415;-63
2021/05/18 08:11:14;;;;;;;0.63;0.60;;;;;;;;;;1480859;40;20033;-63
2021/05/18 08:12:15;;;;;;;1.00;0.52;;;;;;;;;;1480491;40;20032;-62
2021/05/18 08:13:21;;;;;;;1.33;0.57;;;;;;;;;;1480467;40;20334;-63